Terminal Aerodrome Forecast
Issued by NWS

Home | Current Version | Previous Version | Text Only | Print | Product List | Glossary Off
Versions: 1 2 3 4 5 6 7 8 9 10 11 12 13 14

000
FTUS43 KABR 251100
TAFATY
TAF
KATY 251125Z 2512/2612 29011KT P6SM SKC
     FM251800 28012G20KT P6SM BKN100
     FM260000 30009KT P6SM SCT100=

USA.gov is the U.S. government's official web portal to all federal, state and local government web resources and services.